createdAt,value
2018-06-01T00:00:37.590Z,10.90
2018-06-01T00:01:37.595Z,11.10
2018-06-01T00:02:37.621Z,10.00
2018-06-01T00:03:37.647Z,8.90
2018-06-01T00:04:37.672Z,10.20
2018-06-01T00:05:37.699Z,9.50
2018-06-01T00:06:37.725Z,12.50
2018-06-01T00:07:37.752Z,9.40
2018-06-01T00:08:37.776Z,9.50
2018-06-01T00:09:37.802Z,12.90
2018-06-01T00:10:37.829Z,10.90
2018-06-01T00:11:37.854Z,8.80
2018-06-01T00:12:37.880Z,10.60
2018-06-01T00:13:37.905Z,9.40
2018-06-01T00:14:37.935Z,12.70
2018-06-01T00:15:37.958Z,10.20
2018-06-01T00:16:37.985Z,9.00
2018-06-01T00:17:38.009Z,11.90
2018-06-01T00:18:38.038Z,9.70
2018-06-01T00:19:38.063Z,11.30
2018-06-01T00:20:38.089Z,12.00
2018-06-01T00:21:38.120Z,8.90
2018-06-01T00:22:38.139Z,11.60
2018-06-01T00:23:38.165Z,9.60
2018-06-01T00:24:38.192Z,12.00
2018-06-01T00:25:38.218Z,11.00
2018-06-01T00:26:38.245Z,8.50
2018-06-01T00:27:38.268Z,12.20
2018-06-01T00:28:38.295Z,10.90
2018-06-01T00:29:38.325Z,11.60
2018-06-01T00:30:38.347Z,10.00
2018-06-01T00:31:38.373Z,10.30
2018-06-01T00:32:38.399Z,9.80
2018-06-01T00:33:38.424Z,10.60
2018-06-01T00:34:38.450Z,10.70
2018-06-01T00:35:38.477Z,11.40
2018-06-01T00:36:38.505Z,12.90
2018-06-01T00:37:38.528Z,11.20
2018-06-01T00:38:38.558Z,10.30
2018-06-01T00:39:38.581Z,11.10
2018-06-01T00:40:38.607Z,12.60
2018-06-01T00:41:38.632Z,9.80
2018-06-01T00:42:38.659Z,12.10
2018-06-01T00:43:38.684Z,9.70
2018-06-01T00:44:38.697Z,11.60
2018-06-01T00:45:38.723Z,9.10
2018-06-01T00:46:38.796Z,10.10
2018-06-01T00:47:38.775Z,10.60
2018-06-01T00:48:38.801Z,13.90
2018-06-01T00:49:38.826Z,10.50
2018-06-01T00:50:38.865Z,10.80
2018-06-01T00:51:38.878Z,9.10
2018-06-01T00:52:38.916Z,8.80
2018-06-01T00:53:38.932Z,9.90
2018-06-01T00:54:38.956Z,15.10
2018-06-01T00:55:38.982Z,8.60
2018-06-01T00:56:39.008Z,11.00
2018-06-01T00:57:39.034Z,8.60
2018-06-01T00:58:39.059Z,9.20
2018-06-01T00:59:39.086Z,9.80
2018-06-01T01:00:39.112Z,10.70
2018-06-01T01:01:39.137Z,12.50
2018-06-01T01:02:39.167Z,10.60
2018-06-01T01:03:39.189Z,8.70
2018-06-01T01:04:39.215Z,11.20
2018-06-01T01:05:39.241Z,9.00
2018-06-01T01:06:39.267Z,12.00
2018-06-01T01:07:39.305Z,10.90
2018-06-01T01:08:39.319Z,10.50
2018-06-01T01:09:39.345Z,11.20
2018-06-01T01:10:39.372Z,11.70
2018-06-01T01:11:39.396Z,12.00
2018-06-01T01:12:39.423Z,9.30
2018-06-01T01:13:39.461Z,9.60
2018-06-01T01:14:39.474Z,10.70
2018-06-01T01:15:39.500Z,9.40
2018-06-01T01:16:39.526Z,10.80
2018-06-01T01:17:39.552Z,12.60
2018-06-01T01:18:39.579Z,12.60
2018-06-01T01:19:39.604Z,8.60
2018-06-01T01:20:39.629Z,12.50
2018-06-01T01:21:39.655Z,12.00
2018-06-01T01:22:39.693Z,9.80
2018-06-01T01:23:39.706Z,10.50
2018-06-01T01:24:39.733Z,9.60
2018-06-01T01:25:39.759Z,13.10
2018-06-01T01:26:39.784Z,11.10
2018-06-01T01:27:39.810Z,10.60
2018-06-01T01:28:39.825Z,9.70
2018-06-01T01:29:39.851Z,10.60
2018-06-01T01:30:39.877Z,11.10
2018-06-01T01:31:39.902Z,9.10
2018-06-01T01:32:39.928Z,9.70
2018-06-01T01:33:39.957Z,11.50
2018-06-01T01:34:39.979Z,13.90
2018-06-01T01:35:40.006Z,12.00
2018-06-01T01:36:40.033Z,13.60
2018-06-01T01:37:40.057Z,10.80
2018-06-01T01:38:40.083Z,10.80
2018-06-01T01:39:40.109Z,12.50
2018-06-01T01:40:40.135Z,9.40
2018-06-01T01:41:40.163Z,12.00
2018-06-01T01:42:40.186Z,13.40
2018-06-01T01:43:40.214Z,12.00
2018-06-01T01:44:40.238Z,12.10
2018-06-01T01:45:40.266Z,11.90
2018-06-01T01:46:40.290Z,10.60
2018-06-01T01:47:40.317Z,10.80
2018-06-01T01:48:40.342Z,10.10
2018-06-01T01:49:40.372Z,10.10
2018-06-01T01:50:40.394Z,12.30
2018-06-01T01:51:40.420Z,9.70
2018-06-01T01:52:40.433Z,12.60
2018-06-01T01:53:40.460Z,9.90
2018-06-01T01:54:40.486Z,10.30
2018-06-01T01:55:40.511Z,12.40
2018-06-01T01:56:40.536Z,9.70
2018-06-01T01:57:40.562Z,11.90
2018-06-01T01:58:40.589Z,10.90
2018-06-01T01:59:40.628Z,11.30
2018-06-01T02:00:40.641Z,12.00
2018-06-01T02:01:40.667Z,12.90
2018-06-01T02:02:40.696Z,14.50
2018-06-01T02:03:40.718Z,10.30
2018-06-01T02:04:40.749Z,10.70
2018-06-01T02:05:40.770Z,13.80
2018-06-01T02:06:40.797Z,11.80
2018-06-01T02:07:40.822Z,13.90
2018-06-01T02:08:41.151Z,12.70
2018-06-01T02:09:40.876Z,10.20
2018-06-01T02:10:40.901Z,11.20
2018-06-01T02:11:40.914Z,9.90
2018-06-01T02:12:40.940Z,13.90
2018-06-01T02:13:40.966Z,11.90
2018-06-01T02:14:40.991Z,13.20
2018-06-01T02:15:41.020Z,9.90
2018-06-01T02:16:41.044Z,11.80
2018-06-01T02:17:41.069Z,10.20
2018-06-01T02:18:41.102Z,15.00
2018-06-01T02:19:41.121Z,10.20
2018-06-01T02:20:41.148Z,9.20
2018-06-01T02:21:41.174Z,10.90
2018-06-01T02:22:41.199Z,11.90
2018-06-01T02:23:41.225Z,11.30
2018-06-01T02:24:41.251Z,14.30
2018-06-01T02:25:41.278Z,9.60
2018-06-01T02:26:41.303Z,10.00
2018-06-01T02:27:41.328Z,11.20
2018-06-01T02:28:41.347Z,12.50
2018-06-01T02:29:41.370Z,9.40
2018-06-01T02:30:41.395Z,12.50
2018-06-01T02:31:41.419Z,10.80
2018-06-01T02:32:41.449Z,11.40
2018-06-01T02:33:41.471Z,10.90
2018-06-01T02:34:41.497Z,9.50
2018-06-01T02:35:41.522Z,10.10
2018-06-01T02:36:41.549Z,14.10
2018-06-01T02:37:41.574Z,11.40
2018-06-01T02:38:41.600Z,12.20
2018-06-01T02:39:41.626Z,10.90
2018-06-01T02:40:41.652Z,10.50
2018-06-01T02:41:41.680Z,10.50
2018-06-01T02:42:41.704Z,11.10
2018-06-01T02:43:41.730Z,12.90
2018-06-01T02:44:41.744Z,11.30
2018-06-01T02:45:41.772Z,12.20
2018-06-01T02:46:41.797Z,11.60
2018-06-01T02:47:41.823Z,10.50
2018-06-01T02:48:41.849Z,12.90
2018-06-01T02:49:41.885Z,12.50
2018-06-01T02:50:41.904Z,11.70
2018-06-01T02:51:41.926Z,13.50
2018-06-01T02:52:41.951Z,11.40
2018-06-01T02:53:41.978Z,10.50
2018-06-01T02:54:42.004Z,11.10
2018-06-01T02:55:42.029Z,13.80
2018-06-01T02:56:42.056Z,14.40
2018-06-01T02:57:42.081Z,13.20
2018-06-01T02:58:42.108Z,12.20
2018-06-01T02:59:42.121Z,11.90
2018-06-01T03:00:42.146Z,9.90
2018-06-01T03:01:42.173Z,13.20
2018-06-01T03:02:42.198Z,10.50
2018-06-01T03:03:42.224Z,13.90
2018-06-01T03:04:42.251Z,13.50
2018-06-01T03:05:42.278Z,10.40
2018-06-01T03:06:42.306Z,10.00
2018-06-01T03:07:42.328Z,11.40
2018-06-01T03:08:42.354Z,12.40
2018-06-01T03:09:42.379Z,13.20
2018-06-01T03:10:42.407Z,11.70
2018-06-01T03:11:42.432Z,13.00
2018-06-01T03:12:42.446Z,10.90
2018-06-01T03:13:42.471Z,11.20
2018-06-01T03:14:42.497Z,11.50
2018-06-01T03:15:42.523Z,10.10
2018-06-01T03:16:42.550Z,11.80
2018-06-01T03:17:42.575Z,9.70
2018-06-01T03:18:42.601Z,10.90
2018-06-01T03:19:42.627Z,9.90
2018-06-01T03:20:42.653Z,14.50
2018-06-01T03:21:42.678Z,11.60
2018-06-01T03:22:42.705Z,13.90
2018-06-01T03:23:42.730Z,11.10
2018-06-01T03:24:42.747Z,11.00
2018-06-01T03:25:42.769Z,13.50
2018-06-01T03:26:42.794Z,10.10
2018-06-01T03:27:42.822Z,9.20
2018-06-01T03:28:42.847Z,13.40
2018-06-01T03:29:42.872Z,13.40
2018-06-01T03:30:42.899Z,9.60
2018-06-01T03:31:42.925Z,10.20
2018-06-01T03:32:42.951Z,14.40
2018-06-01T03:33:42.976Z,10.30
2018-06-01T03:34:43.002Z,10.10
2018-06-01T03:35:43.032Z,12.90
2018-06-01T03:36:43.054Z,13.30
2018-06-01T03:37:43.068Z,9.60
2018-06-01T03:38:43.094Z,9.20
2018-06-01T03:39:43.119Z,11.20
2018-06-01T03:40:43.146Z,10.60
2018-06-01T03:41:43.172Z,14.60
2018-06-01T03:42:43.197Z,11.50
2018-06-01T03:43:43.223Z,10.00
2018-06-01T03:44:43.250Z,8.80
2018-06-01T03:45:43.279Z,8.80
2018-06-01T03:46:43.301Z,12.30
2018-06-01T03:47:43.329Z,9.10
2018-06-01T03:48:43.341Z,11.30
2018-06-01T03:49:43.381Z,11.00
2018-06-01T03:50:43.393Z,11.10
2018-06-01T03:51:43.418Z,10.50
2018-06-01T03:52:43.444Z,12.10
2018-06-01T03:53:43.469Z,13.20
2018-06-01T03:54:43.498Z,10.90
2018-06-01T03:55:43.522Z,9.50
2018-06-01T03:56:43.549Z,11.00
2018-06-01T03:57:43.580Z,13.80
2018-06-01T03:58:43.599Z,10.30
2018-06-01T03:59:43.625Z,11.70
2018-06-01T04:00:43.653Z,11.00
2018-06-01T04:01:43.666Z,12.00
2018-06-01T04:02:43.695Z,14.60
2018-06-01T04:03:43.718Z,13.40
2018-06-01T04:04:43.746Z,9.90
2018-06-01T04:05:43.771Z,11.10
2018-06-01T04:06:43.796Z,11.50
2018-06-01T04:07:43.821Z,12.40
2018-06-01T04:08:43.847Z,12.40
2018-06-01T04:09:43.877Z,10.10
2018-06-01T04:10:43.898Z,10.50
2018-06-01T04:11:43.925Z,12.40
2018-06-01T04:12:43.955Z,10.10
2018-06-01T04:13:43.976Z,13.60
2018-06-01T04:14:44.002Z,11.50
2018-06-01T04:15:44.016Z,11.30
2018-06-01T04:16:44.049Z,16.70
2018-06-01T04:17:44.067Z,12.40
2018-06-01T04:18:44.093Z,12.90
2018-06-01T04:19:44.119Z,12.90
2018-06-01T04:20:44.158Z,11.40
2018-06-01T04:21:44.171Z,13.00
2018-06-01T04:22:44.197Z,13.20
2018-06-01T04:23:44.222Z,12.20
2018-06-01T04:24:44.248Z,16.50
2018-06-01T04:25:44.274Z,12.80
2018-06-01T04:26:44.314Z,12.10
2018-06-01T04:27:44.376Z,12.10
2018-06-01T04:28:44.354Z,12.50
2018-06-01T04:29:44.378Z,14.20
2018-06-01T04:30:44.394Z,13.40
2018-06-01T04:31:44.422Z,15.50
2018-06-01T04:32:44.444Z,15.90
2018-06-01T04:33:44.471Z,13.60
2018-06-01T04:34:44.496Z,11.70
2018-06-01T04:35:44.522Z,11.10
2018-06-01T04:36:44.549Z,12.60
2018-06-01T04:37:44.574Z,14.50
2018-06-01T04:38:44.601Z,12.80
2018-06-01T04:39:44.626Z,17.30
2018-06-01T04:40:44.651Z,12.30
2018-06-01T04:41:44.678Z,15.00
2018-06-01T04:42:44.703Z,12.70
2018-06-01T04:43:44.730Z,12.60
2018-06-01T04:44:44.756Z,17.40
2018-06-01T04:45:44.782Z,14.60
2018-06-01T04:46:44.806Z,13.20
2018-06-01T04:47:44.833Z,14.50
2018-06-01T04:48:44.846Z,23.10
2018-06-01T04:49:44.873Z,35.70
2018-06-01T04:50:44.898Z,19.60
2018-06-01T04:51:44.925Z,22.90
2018-06-01T04:52:44.950Z,16.30
2018-06-01T04:53:44.975Z,19.00
2018-06-01T04:54:45.001Z,17.40
2018-06-01T04:55:45.027Z,13.80
2018-06-01T04:56:45.053Z,29.30
2018-06-01T04:57:45.079Z,16.20
2018-06-01T04:58:45.106Z,21.00
2018-06-01T04:59:45.131Z,17.60
2018-06-01T05:00:45.157Z,17.70
2018-06-01T05:01:45.183Z,17.60
2018-06-01T05:02:45.209Z,16.60
2018-06-01T05:03:45.235Z,15.30
2018-06-01T05:04:45.260Z,15.00
2018-06-01T05:05:45.287Z,16.70
2018-06-01T05:06:45.350Z,14.20
2018-06-01T05:07:45.337Z,14.80
2018-06-01T05:08:45.364Z,16.90
2018-06-01T05:09:45.390Z,17.50
2018-06-01T05:10:45.417Z,14.40
2018-06-01T05:11:45.441Z,18.00
2018-06-01T05:12:45.467Z,15.70
2018-06-01T05:13:45.493Z,15.30
2018-06-01T05:14:45.520Z,25.40
2018-06-01T05:15:45.545Z,17.30
2018-06-01T05:16:45.571Z,21.90
2018-06-01T05:17:45.597Z,17.70
2018-06-01T05:18:45.623Z,16.70
2018-06-01T05:19:45.649Z,24.70
2018-06-01T05:20:45.663Z,18.40
2018-06-01T05:21:45.689Z,14.40
2018-06-01T05:22:45.717Z,20.70
2018-06-01T05:23:45.758Z,25.30
2018-06-01T05:24:45.768Z,12.90
2018-06-01T05:25:45.797Z,22.20
2018-06-01T05:26:45.831Z,28.00
2018-06-01T05:27:45.856Z,19.60
2018-06-01T05:28:45.882Z,23.90
2018-06-01T05:29:45.908Z,20.60
2018-06-01T05:30:45.935Z,15.80
2018-06-01T05:31:45.960Z,15.70
2018-06-01T05:32:45.999Z,14.40
2018-06-01T05:33:46.013Z,15.20
2018-06-01T05:34:46.038Z,19.40
2018-06-01T05:35:46.064Z,14.00
2018-06-01T05:36:46.090Z,16.30
2018-06-01T05:37:46.116Z,13.20
2018-06-01T05:38:46.142Z,14.90
2018-06-01T05:39:46.167Z,16.60
2018-06-01T05:40:46.194Z,12.40
2018-06-01T05:41:46.219Z,14.10
2018-06-01T05:42:46.246Z,14.60
2018-06-01T05:43:46.284Z,15.60
2018-06-01T05:44:46.310Z,14.90
2018-06-01T05:45:46.336Z,16.10
2018-06-01T05:46:46.362Z,14.50
2018-06-01T05:47:46.389Z,16.60
2018-06-01T05:48:46.414Z,14.70
2018-06-01T05:49:46.440Z,17.80
2018-06-01T05:50:46.465Z,14.70
2018-06-01T05:51:46.500Z,16.80
2018-06-01T05:52:46.520Z,14.10
2018-06-01T05:53:46.595Z,19.80
2018-06-01T05:54:46.573Z,26.40
2018-06-01T05:55:46.606Z,26.40
2018-06-01T05:56:46.633Z,17.40
2018-06-01T05:57:46.662Z,23.60
2018-06-01T05:58:46.685Z,20.90
2018-06-01T05:59:46.710Z,18.30
2018-06-01T06:00:46.739Z,27.30
2018-06-01T06:01:46.763Z,22.90
2018-06-01T06:02:46.789Z,25.50
2018-06-01T06:03:46.815Z,26.30
2018-06-01T06:04:46.840Z,24.60
2018-06-01T06:05:46.867Z,22.90
2018-06-01T06:06:46.909Z,23.70
2018-06-01T06:07:46.919Z,28.70
2018-06-01T06:08:46.957Z,27.20
2018-06-01T06:09:46.983Z,29.70
2018-06-01T06:10:47.010Z,24.40
2018-06-01T06:11:47.035Z,29.30
2018-06-01T06:12:47.061Z,28.40
2018-06-01T06:13:47.087Z,24.70
2018-06-01T06:14:47.113Z,30.60
2018-06-01T06:15:47.138Z,24.40
2018-06-01T06:16:47.166Z,27.30
2018-06-01T06:17:47.206Z,24.50
2018-06-01T06:18:47.228Z,33.00
2018-06-01T06:19:47.271Z,21.50
2018-06-01T06:20:47.279Z,26.20
2018-06-01T06:21:47.306Z,19.50
2018-06-01T06:22:47.331Z,26.80
2018-06-01T06:23:47.371Z,24.50
2018-06-01T06:24:47.396Z,26.50
2018-06-01T06:25:47.423Z,22.30
2018-06-01T06:26:47.449Z,22.40
2018-06-01T06:27:47.486Z,24.40
2018-06-01T06:28:47.512Z,19.80
2018-06-01T06:29:47.538Z,25.40
2018-06-01T06:30:47.565Z,21.40
2018-06-01T06:31:47.604Z,24.30
2018-06-01T06:32:47.628Z,21.50
2018-06-01T06:33:47.654Z,22.40
2018-06-01T06:34:47.692Z,18.10
2018-06-01T06:35:47.720Z,23.50
2018-06-01T06:36:47.744Z,23.10
2018-06-01T06:37:47.785Z,17.00
2018-06-01T06:38:47.810Z,17.00
2018-06-01T06:39:47.844Z,14.90
2018-06-01T06:40:48.065Z,16.20
2018-06-01T06:41:47.899Z,19.90
2018-06-01T06:42:47.925Z,17.60
2018-06-01T06:43:47.955Z,22.20
2018-06-01T06:44:47.992Z,16.20
2018-06-01T06:45:48.017Z,17.50
2018-06-01T06:46:48.054Z,21.60
2018-06-01T06:47:48.079Z,19.20
2018-06-01T06:48:48.106Z,27.60
2018-06-01T06:49:48.144Z,17.10
2018-06-01T06:50:48.182Z,15.80
2018-06-01T06:51:48.207Z,20.60
2018-06-01T06:52:48.235Z,15.60
2018-06-01T06:53:48.273Z,16.90
2018-06-01T06:54:48.320Z,16.90
2018-06-01T06:55:48.344Z,19.00
2018-06-01T06:56:48.376Z,17.20
2018-06-01T06:57:48.402Z,15.80
2018-06-01T06:58:48.441Z,14.60
2018-06-01T06:59:48.479Z,17.70
2018-06-01T07:00:48.504Z,17.30
2018-06-01T07:01:48.543Z,13.90
2018-06-01T07:02:48.608Z,21.00
2018-06-01T07:03:48.607Z,16.00
2018-06-01T07:04:48.644Z,15.20
2018-06-01T07:05:48.674Z,16.00
2018-06-01T07:06:48.711Z,14.60
2018-06-01T07:07:48.748Z,14.80
2018-06-01T07:08:48.788Z,14.80
2018-06-01T07:09:48.814Z,21.50
2018-06-01T07:10:48.858Z,13.50
2018-06-01T07:11:48.889Z,14.70
2018-06-01T07:12:48.932Z,13.50
2018-06-01T07:13:48.952Z,11.90
2018-06-01T07:14:48.993Z,14.80
2018-06-01T07:15:49.030Z,17.90
2018-06-01T07:16:49.069Z,20.70
2018-06-01T07:17:49.095Z,14.30
2018-06-01T07:18:49.132Z,17.70
2018-06-01T07:19:49.171Z,13.70
2018-06-01T07:20:49.209Z,18.50
2018-06-01T07:21:49.235Z,12.60
2018-06-01T07:22:49.274Z,17.80
2018-06-01T07:23:49.312Z,15.20
2018-06-01T07:24:49.337Z,17.20
2018-06-01T07:25:49.377Z,15.00
2018-06-01T07:26:49.415Z,17.90
2018-06-01T07:27:49.489Z,16.10
2018-06-01T07:28:49.480Z,16.40
2018-06-01T07:29:49.517Z,15.70
2018-06-01T07:30:49.545Z,18.60
2018-06-01T07:31:49.583Z,15.00
2018-06-01T07:32:49.620Z,14.70
2018-06-01T07:33:49.646Z,14.90
2018-06-01T07:34:50.035Z,16.40
2018-06-01T07:35:49.711Z,15.20
2018-06-01T07:36:49.762Z,15.20
2018-06-01T07:37:49.792Z,19.60
2018-06-01T07:38:49.835Z,14.90
2018-06-01T07:39:49.851Z,15.60
2018-06-01T07:40:49.883Z,14.60
2018-06-01T07:41:49.917Z,14.60
2018-06-01T07:42:49.955Z,16.10
2018-06-01T07:43:49.995Z,14.40
2018-06-01T07:44:50.023Z,15.20
2018-06-01T07:45:50.058Z,13.50
2018-06-01T07:46:50.113Z,13.50
2018-06-01T07:47:50.123Z,14.20
2018-06-01T07:48:50.160Z,13.80
2018-06-01T07:49:50.200Z,25.50
2018-06-01T07:50:50.226Z,19.50
2018-06-01T07:51:50.263Z,23.70
2018-06-01T07:52:50.302Z,20.30
2018-06-01T07:53:50.329Z,20.10
2018-06-01T07:54:50.372Z,17.20
2018-06-01T07:55:50.405Z,22.10
2018-06-01T07:56:50.432Z,37.40
2018-06-01T07:57:50.470Z,28.10
2018-06-01T07:58:50.507Z,27.30
2018-06-01T07:59:50.546Z,25.70
2018-06-01T08:00:50.584Z,27.40
2018-06-01T08:01:50.614Z,18.10
2018-06-01T08:02:50.639Z,18.90
2018-06-01T08:03:50.674Z,20.20
2018-06-01T08:04:50.713Z,19.40
2018-06-01T08:05:50.739Z,17.90
2018-06-01T08:06:50.778Z,16.80
2018-06-01T08:07:50.816Z,18.50
2018-06-01T08:08:50.841Z,15.80
2018-06-01T08:09:50.881Z,18.90
2018-06-01T08:10:50.924Z,15.40
2018-06-01T08:11:50.957Z,20.20
2018-06-01T08:12:50.995Z,18.10
2018-06-01T08:13:51.023Z,13.90
2018-06-01T08:14:51.072Z,18.40
2018-06-01T08:15:51.099Z,15.70
2018-06-01T08:16:51.135Z,17.80
2018-06-01T08:17:51.177Z,14.30
2018-06-01T08:18:51.213Z,13.30
2018-06-01T08:19:51.252Z,13.80
2018-06-01T08:20:51.290Z,18.00
2018-06-01T08:21:51.329Z,14.20
2018-06-01T08:22:51.366Z,12.30
2018-06-01T08:23:51.411Z,14.10
2018-06-01T08:24:51.443Z,35.30
2018-06-01T08:25:51.486Z,36.30
2018-06-01T08:26:51.525Z,18.90
2018-06-01T08:27:51.559Z,17.50
2018-06-01T08:28:51.598Z,18.60
2018-06-01T08:29:51.637Z,19.30
2018-06-01T08:31:51.713Z,16.40
2018-06-01T08:32:51.752Z,13.70
2018-06-01T08:33:51.789Z,22.80
2018-06-01T08:34:51.829Z,16.80
2018-06-01T08:35:51.867Z,16.00
2018-06-01T08:36:51.948Z,13.40
2018-06-01T08:37:51.946Z,12.60
2018-06-01T08:38:51.982Z,14.40
2018-06-01T08:39:52.068Z,17.40
2018-06-01T08:40:52.059Z,14.90
2018-06-01T08:41:52.101Z,20.30
2018-06-01T08:42:52.134Z,16.90
2018-06-01T08:43:52.176Z,15.50
2018-06-01T08:44:52.211Z,15.00
2018-06-01T08:45:52.254Z,17.00
2018-06-01T08:46:52.290Z,10.30
2018-06-01T08:47:52.327Z,14.40
2018-06-01T08:48:52.368Z,12.60
2018-06-01T08:49:52.405Z,14.90
2018-06-01T08:50:52.455Z,16.10
2018-06-01T08:51:52.507Z,13.80
2018-06-01T08:52:52.532Z,13.50
2018-06-01T08:53:52.570Z,10.30
2018-06-01T08:54:52.609Z,15.60
2018-06-01T08:55:52.648Z,12.10
2018-06-01T08:56:52.723Z,13.70
2018-06-01T08:57:52.737Z,15.20
2018-06-01T08:58:52.784Z,13.60
2018-06-01T08:59:52.819Z,14.00
2018-06-01T09:00:52.870Z,13.10
2018-06-01T09:01:52.902Z,14.40
2018-06-01T09:02:52.944Z,11.10
2018-06-01T09:03:52.992Z,13.10
2018-06-01T09:04:53.030Z,14.10
2018-06-01T09:05:53.069Z,11.50
2018-06-01T09:06:53.107Z,14.20
2018-06-01T09:07:53.158Z,13.30
2018-06-01T09:08:53.196Z,12.60
2018-06-01T09:09:53.234Z,14.40
2018-06-01T09:10:53.285Z,12.70
2018-06-01T09:11:53.326Z,10.80
2018-06-01T09:12:53.376Z,10.50
2018-06-01T09:13:53.425Z,7.60
2018-06-01T09:14:53.453Z,6.70
2018-06-01T09:15:53.504Z,9.50
2018-06-01T09:16:53.540Z,11.40
2018-06-01T09:17:53.580Z,11.50
2018-06-01T09:18:53.631Z,8.40
2018-06-01T09:19:53.681Z,8.40
2018-06-01T09:20:53.711Z,12.40
2018-06-01T09:21:53.746Z,10.10
2018-06-01T09:22:53.796Z,8.20
2018-06-01T09:23:53.835Z,23.20
2018-06-01T09:24:53.873Z,10.00
2018-06-01T09:25:54.261Z,5.40
2018-06-01T09:26:53.949Z,7.40
2018-06-01T09:27:54.013Z,15.60
2018-06-01T09:28:54.040Z,29.50
2018-06-01T09:29:54.078Z,11.70
2018-06-01T09:30:54.127Z,15.10
2018-06-01T09:32:54.194Z,8.00
2018-06-01T09:33:54.231Z,8.10
2018-06-01T09:34:54.270Z,6.60
2018-06-01T09:35:54.313Z,6.40
2018-06-01T09:36:54.352Z,6.00
2018-06-01T09:37:54.387Z,6.20
2018-06-01T09:38:54.424Z,7.10
2018-06-01T09:39:54.462Z,6.30
2018-06-01T09:40:54.501Z,6.20
2018-06-01T09:41:54.538Z,9.40
2018-06-01T09:42:54.582Z,6.40
2018-06-01T09:43:54.615Z,5.30
2018-06-01T09:44:54.644Z,9.90
2018-06-01T09:45:54.681Z,6.60
2018-06-01T09:46:54.718Z,7.70
2018-06-01T09:47:54.757Z,8.20
2018-06-01T09:48:54.796Z,7.00
2018-06-01T09:49:54.833Z,7.50
2018-06-01T09:50:54.871Z,8.60
2018-06-01T09:51:54.911Z,8.60
2018-06-01T09:52:54.948Z,10.20
2018-06-01T09:53:54.987Z,15.50
2018-06-01T09:54:55.027Z,6.70
2018-06-01T09:55:55.063Z,10.40
2018-06-01T09:56:55.102Z,13.50
2018-06-01T09:57:55.141Z,12.00
2018-06-01T09:58:55.191Z,10.30
2018-06-01T09:59:55.217Z,6.90
2018-06-01T10:00:55.255Z,5.70
2018-06-01T10:01:55.295Z,10.20
2018-06-01T10:02:55.333Z,7.30
2018-06-01T10:03:55.384Z,7.80
2018-06-01T10:04:55.423Z,5.10
2018-06-01T10:05:55.465Z,8.40
2018-06-01T10:06:55.498Z,11.40
2018-06-01T10:07:55.538Z,7.70
2018-06-01T10:09:55.626Z,6.00
2018-06-01T10:10:55.664Z,6.70
2018-06-01T10:11:55.715Z,7.90
2018-06-01T10:12:55.754Z,8.60
2018-06-01T10:13:55.793Z,6.30
2018-06-01T10:14:55.843Z,9.00
2018-06-01T10:15:55.882Z,17.10
2018-06-01T10:16:55.922Z,21.50
2018-06-01T10:17:55.959Z,9.80
2018-06-01T10:18:56.010Z,8.80
2018-06-01T10:19:56.048Z,8.50
2018-06-01T10:20:56.098Z,9.10
2018-06-01T10:21:56.137Z,8.60
2018-06-01T10:22:56.175Z,7.80
2018-06-01T10:23:56.227Z,8.70
2018-06-01T10:24:56.266Z,6.60
2018-06-01T10:25:56.303Z,9.80
2018-06-01T10:26:56.355Z,7.70
2018-06-01T10:27:56.393Z,5.80
2018-06-01T10:28:56.443Z,7.00
2018-06-01T10:30:56.532Z,9.80
2018-06-01T10:31:56.571Z,7.30
2018-06-01T10:32:56.639Z,7.20
2018-06-01T10:34:56.724Z,7.20
2018-06-01T10:35:56.751Z,12.00
2018-06-01T10:36:56.801Z,15.20
2018-06-01T10:37:57.140Z,11.50
2018-06-01T10:38:56.889Z,10.10
2018-06-01T10:39:56.938Z,11.80
2018-06-01T10:40:56.979Z,8.10
2018-06-01T10:41:57.018Z,10.00
2018-06-01T10:42:57.068Z,8.30
2018-06-01T10:43:57.119Z,5.90
2018-06-01T10:44:57.158Z,5.70
2018-06-01T10:45:57.209Z,5.70
2018-06-01T10:46:57.247Z,6.30
2018-06-01T10:47:57.298Z,5.20
2018-06-01T10:48:57.340Z,7.10
2018-06-01T10:49:57.388Z,5.80
2018-06-01T10:50:57.439Z,5.70
2018-06-01T10:51:57.476Z,7.90
2018-06-01T10:52:57.527Z,6.20
2018-06-01T10:53:57.567Z,9.60
2018-06-01T10:54:57.617Z,7.70
2018-06-01T10:55:57.656Z,6.90
2018-06-01T10:56:57.706Z,12.50
2018-06-01T10:57:57.748Z,5.50
2018-06-01T10:58:57.797Z,9.50
2018-06-01T10:59:57.834Z,11.40
2018-06-01T11:00:57.874Z,7.80
2018-06-01T11:01:57.924Z,9.30
2018-06-01T11:02:57.961Z,13.80
2018-06-01T11:03:58.001Z,13.00
2018-06-01T11:04:58.051Z,7.70
2018-06-01T11:05:58.090Z,10.60
2018-06-01T11:06:58.134Z,10.20
2018-06-01T11:07:58.166Z,10.70
2018-06-01T11:08:58.205Z,9.40
2018-06-01T11:09:58.243Z,8.80
2018-06-01T11:10:58.293Z,7.50
2018-06-01T11:11:58.332Z,10.50
2018-06-01T11:12:58.370Z,12.60
2018-06-01T11:13:58.410Z,14.90
2018-06-01T11:14:58.447Z,9.80
2018-06-01T11:15:58.487Z,13.30
2018-06-01T11:16:58.525Z,7.30
2018-06-01T11:17:58.563Z,12.30
2018-06-01T11:18:58.606Z,9.90
2018-06-01T11:19:58.640Z,8.20
2018-06-01T11:20:58.718Z,8.90
2018-06-01T11:21:58.720Z,9.50
2018-06-01T11:22:58.760Z,8.70
2018-06-01T11:23:58.807Z,8.20
2018-06-01T11:24:58.845Z,7.20
2018-06-01T11:25:58.882Z,7.50
2018-06-01T11:26:58.931Z,7.70
2018-06-01T11:27:58.959Z,8.60
2018-06-01T11:28:58.999Z,5.80
2018-06-01T11:29:59.036Z,7.10
2018-06-01T11:30:59.076Z,6.90
2018-06-01T11:31:59.127Z,7.30
2018-06-01T11:32:59.177Z,6.60
2018-06-01T11:33:59.206Z,6.90
2018-06-01T11:34:59.241Z,7.20
2018-06-01T11:35:59.292Z,6.70
2018-06-01T11:36:59.330Z,11.20
2018-06-01T11:37:59.370Z,8.00
2018-06-01T11:38:59.420Z,10.10
2018-06-01T11:39:59.462Z,6.60
2018-06-01T11:40:59.509Z,8.00
2018-06-01T11:41:59.548Z,5.10
2018-06-01T11:42:59.586Z,8.90
2018-06-01T11:43:59.629Z,7.40
2018-06-01T11:44:59.674Z,7.00
2018-06-01T11:45:59.713Z,8.30
2018-06-01T11:46:59.765Z,8.30
2018-06-01T11:47:59.804Z,8.50
2018-06-01T11:48:59.841Z,8.50
2018-06-01T11:49:59.892Z,6.90
2018-06-01T11:50:59.930Z,5.70
2018-06-01T11:51:59.981Z,5.20
2018-06-01T11:53:00.020Z,5.90
2018-06-01T11:54:00.071Z,6.70
2018-06-01T11:55:00.109Z,6.50
2018-06-01T11:57:00.199Z,6.70
2018-06-01T11:58:00.250Z,7.90
2018-06-01T11:59:00.287Z,6.40
2018-06-01T12:00:00.340Z,8.30
2018-06-01T12:01:00.379Z,9.10
2018-06-01T12:02:00.430Z,5.90
2018-06-01T12:03:00.466Z,7.80
2018-06-01T12:04:00.517Z,7.60
2018-06-01T12:05:00.556Z,9.00
2018-06-01T12:06:00.608Z,6.70
2018-06-01T12:07:00.658Z,6.00
2018-06-01T12:08:00.695Z,8.70
2018-06-01T12:09:00.746Z,7.50
2018-06-01T12:10:00.786Z,8.20
2018-06-01T12:11:00.886Z,9.50
2018-06-01T12:12:00.879Z,7.40
2018-06-01T12:13:00.925Z,6.90
2018-06-01T12:14:00.977Z,13.10
2018-06-01T12:15:01.016Z,7.70
2018-06-01T12:16:01.066Z,5.30
2018-06-01T12:17:01.115Z,7.00
2018-06-01T12:18:01.155Z,6.50
2018-06-01T12:19:01.206Z,8.80
2018-06-01T12:20:01.245Z,8.00
2018-06-01T12:21:01.296Z,6.20
2018-06-01T12:22:01.347Z,5.70
2018-06-01T12:24:01.437Z,5.40
2018-06-01T12:25:01.475Z,7.60
2018-06-01T12:26:01.525Z,5.40
2018-06-01T12:27:01.581Z,9.20
2018-06-01T12:28:01.614Z,8.70
2018-06-01T12:29:01.666Z,5.10
2018-06-01T12:30:01.705Z,6.00
2018-06-01T12:31:01.759Z,6.30
2018-06-01T12:32:01.807Z,6.90
2018-06-01T12:33:01.844Z,7.70
2018-06-01T12:34:02.245Z,4.80
2018-06-01T12:35:01.936Z,7.70
2018-06-01T12:36:01.984Z,5.40
2018-06-01T12:37:02.023Z,7.30
2018-06-01T12:39:02.125Z,8.10
2018-06-01T12:40:02.164Z,5.10
2018-06-01T12:41:02.215Z,5.40
2018-06-01T12:42:02.259Z,5.70
2018-06-01T12:43:02.303Z,8.20
2018-06-01T12:44:02.357Z,6.10
2018-06-01T12:45:02.394Z,7.40
2018-06-01T12:46:02.453Z,5.90
2018-06-01T12:47:02.482Z,6.00
2018-06-01T12:48:02.534Z,8.70
2018-06-01T12:49:02.573Z,7.80
2018-06-01T12:50:02.623Z,8.30
2018-06-01T12:51:02.673Z,7.30
2018-06-01T12:52:02.723Z,7.50
2018-06-01T12:53:02.763Z,8.70
2018-06-01T12:54:02.871Z,7.30
2018-06-01T12:55:02.852Z,8.40
2018-06-01T12:56:02.904Z,8.90
2018-06-01T12:57:02.942Z,9.40
2018-06-01T12:58:02.994Z,6.80
2018-06-01T12:59:03.042Z,8.40
2018-06-01T13:00:03.082Z,6.10
2018-06-01T13:01:03.137Z,7.50
2018-06-01T13:02:03.169Z,6.30
2018-06-01T13:03:03.220Z,8.80
2018-06-01T13:04:03.272Z,7.40
2018-06-01T13:05:03.310Z,6.10
2018-06-01T13:06:03.362Z,6.00
2018-06-01T13:07:03.400Z,5.50
2018-06-01T13:08:03.455Z,6.60
2018-06-01T13:09:03.501Z,8.20